Time;durP1;ratioP1;P1;durP2;ratioP2;P2;SDS_P1;SDS_P2;PMS_P1;PMS_P2;Temp;Humidity;BMP_temperature;BMP_pressure;BME280_temperature;BME280_humidity;BME280_pressure;Samples;Min_cycle;Max_cycle;Signal;HPM_P1;HPM_P2
2022/08/06 00:01:47;;;;;;;1.40;1.30;;;;;;;;;;5094712;28;20449;-72
2022/08/06 00:04:14;;;;;;;2.40;1.30;;;;;;;;;;5094929;28;20974;-72
2022/08/06 00:06:41;;;;;;;2.17;1.10;;;;;;;;;;5106776;28;20441;-71
2022/08/06 00:09:10;;;;;;;2.60;1.43;;;;;;;;;;5094712;28;20448;-71
2022/08/06 00:11:38;;;;;;;1.30;1.20;;;;;;;;;;5094757;28;20445;-69
2022/08/06 00:14:05;;;;;;;2.20;1.40;;;;;;;;;;5095094;28;20444;-72
2022/08/06 00:16:34;;;;;;;1.63;1.10;;;;;;;;;;5094386;28;20459;-71
2022/08/06 00:19:01;;;;;;;2.00;1.10;;;;;;;;;;5094002;28;20780;-71
2022/08/06 00:21:28;;;;;;;1.60;1.50;;;;;;;;;;5094795;28;20487;-71
2022/08/06 00:23:55;;;;;;;2.30;1.43;;;;;;;;;;5094128;28;20818;-71
2022/08/06 00:26:24;;;;;;;1.60;1.17;;;;;;;;;;5093997;28;20444;-72
2022/08/06 00:28:51;;;;;;;1.77;0.90;;;;;;;;;;5093766;28;20457;-72
2022/08/06 00:31:18;;;;;;;1.10;1.00;;;;;;;;;;5094430;28;20777;-71
2022/08/06 00:33:46;;;;;;;6.43;2.33;;;;;;;;;;5093683;28;20452;-71
2022/08/06 00:36:14;;;;;;;1.40;1.10;;;;;;;;;;5094313;28;20475;-71
2022/08/06 00:38:41;;;;;;;1.60;1.20;;;;;;;;;;5093516;28;20444;-71
2022/08/06 00:41:08;;;;;;;1.30;1.00;;;;;;;;;;5094231;28;20846;-71
2022/08/06 00:43:35;;;;;;;1.47;1.20;;;;;;;;;;5094096;28;20445;-71
2022/08/06 00:46:03;;;;;;;1.13;1.00;;;;;;;;;;5094756;28;20454;-72
2022/08/06 00:48:30;;;;;;;1.23;1.13;;;;;;;;;;5093884;28;20457;-71
2022/08/06 00:50:58;;;;;;;1.23;1.10;;;;;;;;;;5093494;28;20756;-71
2022/08/06 00:53:26;;;;;;;1.70;1.50;;;;;;;;;;5094001;28;20445;-72
2022/08/06 00:55:53;;;;;;;1.43;1.33;;;;;;;;;;5093587;28;20449;-72
2022/08/06 00:58:20;;;;;;;1.13;0.90;;;;;;;;;;5093486;28;20878;-72
2022/08/06 01:00:47;;;;;;;1.23;1.10;;;;;;;;;;5093110;28;20837;-71
2022/08/06 01:03:16;;;;;;;2.13;1.00;;;;;;;;;;5093599;28;20883;-71
2022/08/06 01:05:44;;;;;;;1.50;1.40;;;;;;;;;;5093502;28;20453;-71
2022/08/06 01:08:12;;;;;;;1.00;0.90;;;;;;;;;;5093220;28;20448;-71
2022/08/06 01:10:40;;;;;;;1.07;0.97;;;;;;;;;;5093316;28;20445;-71
2022/08/06 01:13:07;;;;;;;1.50;1.13;;;;;;;;;;5093971;28;20528;-72
2022/08/06 01:15:35;;;;;;;0.90;0.90;;;;;;;;;;5093630;28;20455;-71
2022/08/06 01:18:05;;;;;;;1.53;0.90;;;;;;;;;;5093025;28;20528;-71
2022/08/06 01:20:38;;;;;;;1.20;1.00;;;;;;;;;;5093506;28;20975;-71
2022/08/06 01:23:22;;;;;;;2.80;1.40;;;;;;;;;;5093475;28;20441;-71
2022/08/06 01:26:03;;;;;;;0.73;0.73;;;;;;;;;;5093013;28;20445;-70
2022/08/06 01:28:34;;;;;;;1.63;1.10;;;;;;;;;;5093207;28;20440;-71
2022/08/06 01:31:04;;;;;;;1.50;1.40;;;;;;;;;;5092795;28;20535;-71
2022/08/06 01:33:33;;;;;;;1.13;1.03;;;;;;;;;;5093189;28;20456;-71
2022/08/06 01:36:03;;;;;;;3.27;1.10;;;;;;;;;;5096233;28;20491;-71
2022/08/06 01:38:33;;;;;;;2.00;1.20;;;;;;;;;;5092762;28;20445;-71
2022/08/06 01:41:01;;;;;;;3.20;1.20;;;;;;;;;;5092562;28;20481;-71
2022/08/06 01:43:29;;;;;;;1.27;1.17;;;;;;;;;;5093394;28;20449;-71
2022/08/06 01:45:59;;;;;;;2.10;0.90;;;;;;;;;;5092657;28;20532;-72
2022/08/06 01:48:27;;;;;;;1.43;0.97;;;;;;;;;;5092486;28;20531;-71
2022/08/06 01:50:56;;;;;;;0.90;0.80;;;;;;;;;;5092706;28;20457;-72
2022/08/06 01:53:25;;;;;;;1.80;1.00;;;;;;;;;;5093091;28;20449;-72
2022/08/06 01:55:55;;;;;;;2.50;1.20;;;;;;;;;;5092409;28;20453;-72
2022/08/06 01:58:24;;;;;;;1.53;1.20;;;;;;;;;;5092510;28;20449;-72
2022/08/06 02:00:52;;;;;;;1.53;0.93;;;;;;;;;;5092434;28;20480;-72
2022/08/06 02:03:24;;;;;;;1.00;0.90;;;;;;;;;;5092780;28;20551;-71
2022/08/06 02:05:53;;;;;;;1.03;0.93;;;;;;;;;;5091930;28;20468;-71
2022/08/06 02:08:21;;;;;;;2.03;1.10;;;;;;;;;;5092480;28;20811;-71
2022/08/06 02:10:49;;;;;;;1.97;1.33;;;;;;;;;;5090861;28;20474;-71
2022/08/06 02:13:16;;;;;;;1.20;0.90;;;;;;;;;;5092574;28;20453;-71
2022/08/06 02:15:45;;;;;;;2.03;0.90;;;;;;;;;;5091812;28;20457;-71
2022/08/06 02:18:12;;;;;;;1.23;0.80;;;;;;;;;;5092224;28;20441;-72
2022/08/06 02:20:42;;;;;;;1.00;0.90;;;;;;;;;;5091563;28;20473;-71
2022/08/06 02:23:11;;;;;;;1.90;1.00;;;;;;;;;;5092166;28;20437;-71
2022/08/06 02:25:39;;;;;;;1.17;1.00;;;;;;;;;;5091512;28;20453;-70
2022/08/06 02:28:08;;;;;;;1.20;0.90;;;;;;;;;;5092271;28;20469;-72
2022/08/06 02:30:37;;;;;;;5.30;1.20;;;;;;;;;;5092097;28;20943;-72
2022/08/06 02:33:05;;;;;;;1.37;1.23;;;;;;;;;;5092171;28;20461;-72
2022/08/06 02:35:34;;;;;;;1.13;1.03;;;;;;;;;;5095859;28;20471;-71
2022/08/06 02:38:05;;;;;;;1.33;1.20;;;;;;;;;;5091022;28;20940;-71
2022/08/06 02:40:36;;;;;;;1.10;1.00;;;;;;;;;;5091748;28;20930;-71
2022/08/06 02:43:06;;;;;;;1.27;1.17;;;;;;;;;;5092060;28;20437;-71
2022/08/06 02:45:37;;;;;;;2.30;1.00;;;;;;;;;;5092378;28;20494;-72
2022/08/06 02:48:09;;;;;;;1.50;1.30;;;;;;;;;;5091594;28;20964;-71
2022/08/06 02:50:38;;;;;;;1.77;1.20;;;;;;;;;;5091913;28;20468;-71
2022/08/06 02:53:08;;;;;;;1.03;0.93;;;;;;;;;;5091914;28;20448;-71
2022/08/06 02:55:38;;;;;;;1.10;0.90;;;;;;;;;;5091884;28;20554;-70
2022/08/06 02:58:09;;;;;;;0.93;0.90;;;;;;;;;;5091727;28;20452;-72
2022/08/06 03:00:38;;;;;;;1.20;1.10;;;;;;;;;;5091866;28;20473;-71
2022/08/06 03:03:07;;;;;;;1.40;1.00;;;;;;;;;;5091864;28;20449;-70
2022/08/06 03:05:34;;;;;;;2.40;1.20;;;;;;;;;;5097939;28;20483;-70
2022/08/06 03:08:02;;;;;;;1.00;0.90;;;;;;;;;;5096830;28;20449;-71
2022/08/06 03:10:31;;;;;;;1.60;1.30;;;;;;;;;;5091555;28;20449;-71
2022/08/06 03:12:58;;;;;;;1.90;1.20;;;;;;;;;;5090915;28;20997;-71
2022/08/06 03:15:26;;;;;;;1.20;1.03;;;;;;;;;;5093421;28;20451;-72
2022/08/06 03:17:56;;;;;;;1.40;1.30;;;;;;;;;;5093876;28;20441;-72
2022/08/06 03:20:23;;;;;;;1.27;1.00;;;;;;;;;;5094529;28;20445;-71
2022/08/06 03:22:52;;;;;;;1.73;1.10;;;;;;;;;;5090739;28;20459;-71
2022/08/06 03:25:19;;;;;;;1.90;1.10;;;;;;;;;;5091051;28;20452;-70
2022/08/06 03:27:48;;;;;;;0.80;0.80;;;;;;;;;;5090469;28;20449;-70
2022/08/06 03:30:17;;;;;;;1.53;1.27;;;;;;;;;;5091351;28;20441;-71
2022/08/06 03:32:44;;;;;;;0.90;0.83;;;;;;;;;;5090756;28;20923;-71
2022/08/06 03:35:12;;;;;;;5.90;1.10;;;;;;;;;;5091092;28;20496;-71
2022/08/06 03:37:40;;;;;;;3.23;1.23;;;;;;;;;;5090754;28;20447;-70
2022/08/06 03:40:08;;;;;;;0.90;0.80;;;;;;;;;;5091211;28;20455;-71
2022/08/06 03:42:35;;;;;;;1.10;1.00;;;;;;;;;;5090879;28;20481;-71
2022/08/06 03:45:05;;;;;;;1.47;1.37;;;;;;;;;;5090607;28;20453;-71
2022/08/06 03:47:33;;;;;;;1.17;1.07;;;;;;;;;;5091272;28;20476;-71
2022/08/06 03:50:03;;;;;;;2.17;1.13;;;;;;;;;;5090359;28;20444;-70
2022/08/06 03:52:32;;;;;;;1.37;1.27;;;;;;;;;;5091476;28;20523;-70
2022/08/06 03:55:02;;;;;;;1.30;1.07;;;;;;;;;;5090339;28;20444;-70
2022/08/06 03:57:33;;;;;;;0.90;0.80;;;;;;;;;;5091165;28;20535;-70
2022/08/06 04:00:01;;;;;;;1.33;1.20;;;;;;;;;;5090274;28;20455;-70
2022/08/06 04:02:31;;;;;;;1.60;1.27;;;;;;;;;;5090916;28;20560;-70
2022/08/06 04:04:59;;;;;;;1.33;1.20;;;;;;;;;;5090235;28;20445;-71
2022/08/06 04:07:27;;;;;;;1.70;0.97;;;;;;;;;;5091341;28;20444;-71
2022/08/06 04:09:54;;;;;;;0.90;0.90;;;;;;;;;;5090211;28;20455;-70
2022/08/06 04:12:22;;;;;;;1.03;0.93;;;;;;;;;;5091029;28;20452;-71
2022/08/06 04:14:49;;;;;;;1.27;1.17;;;;;;;;;;5090361;28;20912;-70
2022/08/06 04:17:18;;;;;;;0.90;0.87;;;;;;;;;;5091445;28;20453;-71
2022/08/06 04:19:47;;;;;;;1.27;1.00;;;;;;;;;;5090089;28;20539;-71
2022/08/06 04:22:14;;;;;;;1.53;1.27;;;;;;;;;;5091003;28;20480;-71
2022/08/06 04:24:41;;;;;;;0.97;0.87;;;;;;;;;;5090201;28;20449;-71
2022/08/06 04:27:09;;;;;;;3.50;1.20;;;;;;;;;;5090788;28;20491;-70
2022/08/06 04:29:37;;;;;;;1.83;1.10;;;;;;;;;;5090206;28;20449;-71
2022/08/06 04:32:05;;;;;;;1.60;1.30;;;;;;;;;;5091026;28;20460;-71
2022/08/06 04:34:33;;;;;;;1.40;1.03;;;;;;;;;;5092890;28;20448;-71
2022/08/06 04:37:02;;;;;;;1.17;1.07;;;;;;;;;;5096887;28;21003;-71
2022/08/06 04:39:29;;;;;;;2.07;1.20;;;;;;;;;;5100492;28;20451;-71
2022/08/06 04:41:57;;;;;;;1.47;1.20;;;;;;;;;;5101966;28;21515;-70
2022/08/06 04:44:27;;;;;;;1.87;1.77;;;;;;;;;;5103474;28;20451;-71
2022/08/06 04:46:55;;;;;;;1.33;1.20;;;;;;;;;;5104779;28;20459;-72
2022/08/06 04:49:22;;;;;;;3.10;1.37;;;;;;;;;;5105467;28;20543;-72
2022/08/06 04:51:49;;;;;;;0.90;0.90;;;;;;;;;;5105936;28;20512;-71
2022/08/06 04:54:18;;;;;;;4.77;1.27;;;;;;;;;;5107928;28;20528;-72
2022/08/06 04:56:46;;;;;;;3.23;1.30;;;;;;;;;;5105870;28;20981;-72
2022/08/06 04:59:13;;;;;;;1.20;1.00;;;;;;;;;;5108045;28;20437;-71
2022/08/06 05:01:40;;;;;;;1.30;1.20;;;;;;;;;;5106879;28;21010;-71
2022/08/06 05:04:07;;;;;;;1.40;1.30;;;;;;;;;;5103126;28;20449;-69
2022/08/06 05:06:38;;;;;;;1.03;0.93;;;;;;;;;;5095079;28;20459;-71
2022/08/06 05:09:09;;;;;;;2.00;1.10;;;;;;;;;;5094504;28;20797;-71
2022/08/06 05:11:40;;;;;;;1.67;1.00;;;;;;;;;;5094321;28;20455;-71
2022/08/06 05:14:10;;;;;;;1.13;1.03;;;;;;;;;;5094550;28;20441;-71
2022/08/06 05:16:40;;;;;;;1.20;1.10;;;;;;;;;;5093808;28;20458;-68
2022/08/06 05:19:09;;;;;;;1.27;1.17;;;;;;;;;;5093823;28;20817;-71
2022/08/06 05:21:37;;;;;;;1.73;1.17;;;;;;;;;;5093992;28;20484;-71
2022/08/06 05:24:05;;;;;;;1.40;0.97;;;;;;;;;;5093869;28;20816;-71
2022/08/06 05:26:32;;;;;;;1.93;1.37;;;;;;;;;;5093625;28;20943;-71
2022/08/06 05:29:01;;;;;;;1.20;1.10;;;;;;;;;;5092664;28;20449;-70
2022/08/06 05:31:31;;;;;;;1.13;1.03;;;;;;;;;;5093622;28;20453;-71
2022/08/06 05:33:58;;;;;;;3.20;1.57;;;;;;;;;;5092662;28;20457;-71
2022/08/06 05:36:26;;;;;;;1.30;1.20;;;;;;;;;;5097395;28;20468;-72
2022/08/06 05:38:53;;;;;;;1.43;1.33;;;;;;;;;;5092060;28;20453;-71
2022/08/06 05:41:20;;;;;;;1.37;1.27;;;;;;;;;;5092783;28;20504;-71
2022/08/06 05:43:47;;;;;;;1.13;1.00;;;;;;;;;;5092753;28;20799;-72
2022/08/06 05:46:17;;;;;;;1.73;1.20;;;;;;;;;;5092913;28;20440;-71
2022/08/06 05:48:47;;;;;;;1.50;1.40;;;;;;;;;;5092146;28;20491;-71
2022/08/06 05:51:18;;;;;;;1.50;1.10;;;;;;;;;;5093239;28;20456;-72
2022/08/06 05:53:49;;;;;;;4.07;1.33;;;;;;;;;;5092560;28;20441;-72
2022/08/06 05:56:18;;;;;;;1.50;1.20;;;;;;;;;;5092975;28;20441;-70
2022/08/06 05:58:49;;;;;;;1.63;1.17;;;;;;;;;;5091660;28;20456;-71
2022/08/06 06:01:18;;;;;;;1.47;1.37;;;;;;;;;;5092609;28;20524;-72
2022/08/06 06:03:46;;;;;;;1.20;1.10;;;;;;;;;;5092374;28;20819;-72
2022/08/06 06:06:13;;;;;;;1.73;1.10;;;;;;;;;;5092578;28;20444;-73
2022/08/06 06:08:41;;;;;;;1.10;1.00;;;;;;;;;;5091866;28;20532;-71
2022/08/06 06:11:09;;;;;;;1.00;0.90;;;;;;;;;;5092707;28;20449;-72
2022/08/06 06:13:36;;;;;;;1.40;1.30;;;;;;;;;;5092543;28;20445;-72
2022/08/06 06:16:11;;;;;;;2.77;1.40;;;;;;;;;;5092734;28;20806;-71
2022/08/06 06:18:46;;;;;;;1.40;1.30;;;;;;;;;;5091602;28;20877;-69
2022/08/06 06:21:18;;;;;;;1.20;1.03;;;;;;;;;;5092547;28;20450;-71
2022/08/06 06:23:48;;;;;;;1.20;1.10;;;;;;;;;;5091826;28;21077;-71
2022/08/06 06:26:19;;;;;;;1.60;1.50;;;;;;;;;;5092060;28;20952;-71
2022/08/06 06:28:51;;;;;;;1.50;1.40;;;;;;;;;;5091200;28;20441;-72
2022/08/06 06:31:22;;;;;;;1.30;1.20;;;;;;;;;;5092429;28;20449;-72
2022/08/06 06:33:57;;;;;;;2.00;1.10;;;;;;;;;;5091390;28;20456;-72
2022/08/06 06:36:27;;;;;;;2.00;1.67;;;;;;;;;;5092449;28;20473;-71
2022/08/06 06:38:59;;;;;;;5.33;1.77;;;;;;;;;;5091344;28;20445;-72
2022/08/06 06:41:29;;;;;;;2.10;1.33;;;;;;;;;;5092010;28;20844;-72
2022/08/06 06:44:00;;;;;;;3.20;1.70;;;;;;;;;;5091667;28;20531;-72
2022/08/06 06:46:32;;;;;;;1.33;1.23;;;;;;;;;;5092075;28;20472;-72
2022/08/06 06:49:03;;;;;;;1.60;1.50;;;;;;;;;;5090640;28;20449;-71
2022/08/06 06:51:32;;;;;;;3.10;1.60;;;;;;;;;;5091903;28;20813;-71
2022/08/06 06:54:00;;;;;;;2.30;1.50;;;;;;;;;;5091208;28;20448;-71
2022/08/06 06:56:29;;;;;;;1.30;1.20;;;;;;;;;;5091197;28;20851;-71
2022/08/06 06:59:00;;;;;;;2.40;1.50;;;;;;;;;;5090372;28;20440;-71
2022/08/06 07:01:27;;;;;;;2.17;1.23;;;;;;;;;;5091300;28;20441;-71
2022/08/06 07:03:56;;;;;;;1.60;1.50;;;;;;;;;;5091295;28;20463;-71
2022/08/06 07:06:25;;;;;;;1.20;1.10;;;;;;;;;;5102522;28;20852;-71
2022/08/06 07:08:52;;;;;;;1.90;1.33;;;;;;;;;;5090656;28;20445;-71
2022/08/06 07:11:20;;;;;;;1.40;1.30;;;;;;;;;;5091655;28;20449;-72
2022/08/06 07:13:49;;;;;;;1.30;1.20;;;;;;;;;;5092125;28;20779;-71
2022/08/06 07:16:17;;;;;;;1.50;1.27;;;;;;;;;;5092343;28;20477;-71
2022/08/06 07:18:45;;;;;;;1.20;1.00;;;;;;;;;;5090047;28;20464;-71
2022/08/06 07:21:14;;;;;;;2.47;1.40;;;;;;;;;;5090851;28;20449;-71
2022/08/06 07:23:43;;;;;;;1.60;1.07;;;;;;;;;;5090732;28;20518;-71
2022/08/06 07:26:12;;;;;;;2.10;1.67;;;;;;;;;;5091052;28;20528;-71
2022/08/06 07:28:39;;;;;;;1.37;1.23;;;;;;;;;;5090100;28;20448;-71
2022/08/06 07:31:07;;;;;;;2.20;1.43;;;;;;;;;;5091289;28;20452;-71
2022/08/06 07:33:35;;;;;;;1.70;1.57;;;;;;;;;;5091559;28;20467;-71
2022/08/06 07:36:02;;;;;;;1.30;1.20;;;;;;;;;;5094430;28;20964;-71
2022/08/06 07:38:30;;;;;;;2.00;1.50;;;;;;;;;;5090468;28;20444;-71
2022/08/06 07:41:00;;;;;;;1.50;1.40;;;;;;;;;;5090279;28;20451;-70
2022/08/06 07:43:28;;;;;;;1.40;1.20;;;;;;;;;;5091213;28;20491;-71
2022/08/06 07:45:57;;;;;;;2.37;1.63;;;;;;;;;;5090857;28;20448;-71
2022/08/06 07:48:26;;;;;;;1.80;1.70;;;;;;;;;;5090776;28;20441;-71
2022/08/06 07:50:53;;;;;;;1.53;1.43;;;;;;;;;;5090512;28;20543;-71
2022/08/06 07:53:21;;;;;;;2.07;1.30;;;;;;;;;;5091101;28;20539;-71
2022/08/06 07:55:48;;;;;;;1.47;1.37;;;;;;;;;;5090655;28;20445;-72
2022/08/06 07:58:17;;;;;;;1.97;1.50;;;;;;;;;;5090584;28;20441;-71
2022/08/06 08:00:44;;;;;;;1.50;1.40;;;;;;;;;;5090289;28;20548;-71
2022/08/06 08:08:41;;;;;;;1.50;1.40;;;;;;;;;;5090156;28;20923;-72
2022/08/06 08:11:09;;;;;;;2.00;1.80;;;;;;;;;;5094682;28;20539;-70
2022/08/06 08:13:38;;;;;;;1.43;1.33;;;;;;;;;;5094735;28;20476;-71
2022/08/06 08:16:06;;;;;;;1.73;1.60;;;;;;;;;;5094815;28;20449;-72
2022/08/06 08:18:34;;;;;;;1.77;1.53;;;;;;;;;;5094626;28;20800;-71
2022/08/06 08:21:01;;;;;;;1.30;1.20;;;;;;;;;;5094166;28;20467;-71
2022/08/06 08:23:30;;;;;;;1.70;1.50;;;;;;;;;;5094811;28;20484;-71
2022/08/06 08:25:58;;;;;;;1.67;1.50;;;;;;;;;;5094057;28;20452;-71
2022/08/06 08:28:25;;;;;;;1.57;1.47;;;;;;;;;;5094080;28;20444;-71
2022/08/06 08:30:53;;;;;;;1.53;1.43;;;;;;;;;;5093859;28;20449;-71
2022/08/06 08:33:21;;;;;;;1.40;1.30;;;;;;;;;;5094228;28;20551;-71
2022/08/06 08:35:48;;;;;;;1.43;1.20;;;;;;;;;;5093646;28;20819;-71
2022/08/06 08:38:15;;;;;;;2.00;1.63;;;;;;;;;;5093976;28;20448;-73
2022/08/06 08:40:43;;;;;;;2.33;1.70;;;;;;;;;;5093658;28;20540;-72
2022/08/06 08:43:13;;;;;;;2.77;1.50;;;;;;;;;;5094135;28;20495;-71
2022/08/06 08:45:41;;;;;;;3.57;1.70;;;;;;;;;;5093498;28;20448;-70
2022/08/06 08:48:12;;;;;;;3.47;1.50;;;;;;;;;;5093769;28;20449;-70
2022/08/06 08:50:42;;;;;;;1.43;1.20;;;;;;;;;;5093643;28;20448;-70
2022/08/06 08:53:13;;;;;;;1.47;1.37;;;;;;;;;;5094034;28;20555;-70
2022/08/06 08:55:41;;;;;;;2.47;1.87;;;;;;;;;;5093151;28;20443;-71
2022/08/06 08:58:09;;;;;;;1.30;1.17;;;;;;;;;;5093332;28;20811;-70
2022/08/06 09:00:36;;;;;;;1.40;1.30;;;;;;;;;;5093799;28;20441;-71
2022/08/06 09:03:05;;;;;;;1.60;1.50;;;;;;;;;;5093853;28;20484;-71
2022/08/06 09:05:35;;;;;;;2.07;1.87;;;;;;;;;;5093534;28;20472;-72
2022/08/06 09:08:03;;;;;;;2.57;1.53;;;;;;;;;;5092696;28;20449;-70
2022/08/06 09:10:31;;;;;;;1.37;1.27;;;;;;;;;;5093699;28;20488;-71
2022/08/06 09:12:58;;;;;;;2.47;1.83;;;;;;;;;;5092847;28;20799;-70
2022/08/06 09:15:25;;;;;;;4.00;1.33;;;;;;;;;;5093634;28;20458;-71
2022/08/06 09:17:52;;;;;;;1.33;1.23;;;;;;;;;;5092540;28;20455;-71
2022/08/06 09:20:19;;;;;;;1.50;1.40;;;;;;;;;;5093054;28;20479;-71
2022/08/06 09:22:50;;;;;;;1.63;1.53;;;;;;;;;;5092812;28;20476;-71
2022/08/06 09:25:37;;;;;;;2.60;1.60;;;;;;;;;;5093464;28;20439;-71
2022/08/06 09:28:05;;;;;;;1.43;1.33;;;;;;;;;;5092643;28;21003;-70
2022/08/06 09:30:32;;;;;;;2.90;1.83;;;;;;;;;;5093198;28;20471;-70
2022/08/06 09:32:59;;;;;;;1.83;1.63;;;;;;;;;;5092363;28;20445;-70
2022/08/06 09:35:27;;;;;;;1.80;1.70;;;;;;;;;;5097115;28;20468;-71
2022/08/06 09:38:02;;;;;;;1.83;1.13;;;;;;;;;;5092440;28;20468;-71
2022/08/06 09:40:29;;;;;;;1.30;1.20;;;;;;;;;;5092923;28;20444;-71
2022/08/06 09:42:56;;;;;;;1.70;1.60;;;;;;;;;;5092196;28;20469;-71
2022/08/06 09:45:24;;;;;;;1.57;1.47;;;;;;;;;;5093412;28;20448;-72
2022/08/06 09:48:01;;;;;;;1.40;1.30;;;;;;;;;;5092086;28;20532;-71
2022/08/06 09:50:39;;;;;;;1.60;1.50;;;;;;;;;;5092966;28;20459;-71
2022/08/06 09:53:07;;;;;;;1.63;1.53;;;;;;;;;;5092837;28;20541;-71
2022/08/06 09:55:35;;;;;;;1.50;1.33;;;;;;;;;;5092662;28;20451;-71
2022/08/06 09:58:02;;;;;;;1.53;1.43;;;;;;;;;;5091771;28;20449;-71
2022/08/06 10:00:30;;;;;;;1.73;1.57;;;;;;;;;;5092769;28;20816;-71
2022/08/06 10:02:57;;;;;;;2.87;1.50;;;;;;;;;;5092217;28;20492;-71
2022/08/06 10:05:25;;;;;;;1.70;1.20;;;;;;;;;;5092417;28;20433;-70
2022/08/06 10:08:06;;;;;;;1.73;1.40;;;;;;;;;;5091848;28;20800;-71
2022/08/06 10:10:42;;;;;;;3.20;1.50;;;;;;;;;;5092574;28;20453;-71
2022/08/06 10:13:18;;;;;;;1.43;1.30;;;;;;;;;;5092009;28;20458;-71
2022/08/06 10:15:45;;;;;;;2.47;1.70;;;;;;;;;;5091545;28;20535;-71
2022/08/06 10:18:15;;;;;;;3.50;1.30;;;;;;;;;;5091625;28;20536;-71
2022/08/06 10:21:00;;;;;;;1.60;1.50;;;;;;;;;;5091877;28;20437;-71
2022/08/06 10:23:28;;;;;;;1.43;1.33;;;;;;;;;;5092461;28;20469;-72
2022/08/06 10:25:56;;;;;;;1.63;1.53;;;;;;;;;;5091708;28;20457;-72
2022/08/06 10:28:25;;;;;;;1.80;1.70;;;;;;;;;;5091749;28;20539;-72
2022/08/06 10:30:52;;;;;;;1.77;1.30;;;;;;;;;;5091628;28;20456;-71
2022/08/06 10:33:20;;;;;;;1.60;1.50;;;;;;;;;;5090999;28;20465;-71
2022/08/06 10:35:48;;;;;;;1.63;1.30;;;;;;;;;;5091190;28;20469;-71
2022/08/06 10:38:16;;;;;;;1.30;1.20;;;;;;;;;;5091693;28;20523;-72
2022/08/06 10:40:45;;;;;;;1.60;1.50;;;;;;;;;;5091424;28;20449;-71
2022/08/06 10:43:14;;;;;;;1.37;1.27;;;;;;;;;;5091975;28;20485;-71
2022/08/06 10:45:42;;;;;;;1.50;1.40;;;;;;;;;;5091181;28;20543;-71
2022/08/06 10:48:10;;;;;;;1.83;1.60;;;;;;;;;;5091539;28;20453;-71
2022/08/06 10:50:39;;;;;;;1.83;1.23;;;;;;;;;;5091591;28;20449;-71
2022/08/06 10:53:06;;;;;;;2.73;1.40;;;;;;;;;;5091664;28;20452;-72
2022/08/06 10:55:34;;;;;;;1.43;1.33;;;;;;;;;;5091942;28;20455;-71
2022/08/06 10:58:01;;;;;;;2.17;1.50;;;;;;;;;;5090555;28;20457;-71
2022/08/06 11:00:32;;;;;;;1.60;1.20;;;;;;;;;;5091846;28;20448;-72
2022/08/06 11:03:02;;;;;;;2.47;1.83;;;;;;;;;;5091319;28;20489;-71
2022/08/06 11:05:30;;;;;;;1.60;1.50;;;;;;;;;;5091771;28;20885;-71
2022/08/06 11:08:04;;;;;;;2.23;2.03;;;;;;;;;;5090990;28;20721;-71
2022/08/06 11:10:38;;;;;;;1.70;1.60;;;;;;;;;;5092484;28;20524;-72
2022/08/06 11:13:11;;;;;;;1.57;1.30;;;;;;;;;;5092372;28;20531;-72
2022/08/06 11:15:41;;;;;;;1.40;1.30;;;;;;;;;;5094317;28;20433;-68
2022/08/06 11:18:09;;;;;;;1.70;1.60;;;;;;;;;;5094718;28;20436;-70
2022/08/06 11:20:39;;;;;;;1.87;1.77;;;;;;;;;;5094561;28;20445;-71
2022/08/06 11:23:22;;;;;;;1.47;1.37;;;;;;;;;;5092012;28;20468;-72
2022/08/06 11:25:50;;;;;;;1.80;1.57;;;;;;;;;;5090732;28;20535;-71
2022/08/06 11:28:18;;;;;;;1.80;1.70;;;;;;;;;;5090925;28;20445;-71
2022/08/06 11:30:48;;;;;;;2.13;1.67;;;;;;;;;;5090622;28;20456;-72
2022/08/06 11:33:16;;;;;;;3.63;1.40;;;;;;;;;;5090959;28;20543;-72
2022/08/06 11:35:45;;;;;;;1.57;1.47;;;;;;;;;;5090377;28;20473;-71
2022/08/06 11:38:13;;;;;;;1.63;1.33;;;;;;;;;;5090562;28;20448;-71
2022/08/06 11:41:00;;;;;;;4.00;1.53;;;30.90;1.00;;;;;;5090543;28;20444;-71
2022/08/06 11:43:47;;;;;;;1.20;1.10;;;25.10;1.00;;;;;;5092524;28;20488;-72
2022/08/06 11:46:23;;;;;;;1.60;1.50;;;24.70;1.00;;;;;;5095613;28;20452;-71
2022/08/06 11:49:11;;;;;;;2.27;1.60;;;24.70;1.00;;;;;;5094611;28;20448;-71
2022/08/06 11:51:39;;;;;;;2.60;1.60;;;24.90;1.00;;;;;;5086568;28;20457;-71
2022/08/06 11:54:13;;;;;;;1.73;1.30;;;25.20;1.00;;;;;;5092659;28;20518;-71
2022/08/06 11:57:18;;;;;;;2.20;1.50;;;25.10;1.00;;;;;;5105049;28;20464;-71
2022/08/06 12:00:24;;;;;;;1.70;1.33;;;24.90;1.00;;;;;;5102892;28;20512;-72
2022/08/06 12:02:59;;;;;;;1.57;1.23;;;24.70;1.00;;;;;;5103457;28;20999;-71
2022/08/06 12:05:40;;;;;;;1.53;1.43;;;25.40;1.00;;;;;;5091328;28;20492;-72
2022/08/06 12:08:26;;;;;;;1.60;1.50;;;25.60;1.00;;;;;;5105201;28;20461;-71
2022/08/06 12:11:22;;;;;;;1.23;1.13;;;26.00;1.00;;;;;;5105383;28;20439;-72
2022/08/06 12:13:49;;;;;;;1.70;1.60;;;26.20;1.00;;;;;;5094488;28;20448;-72
2022/08/06 12:16:39;;;;;;;1.90;1.80;;;25.80;1.00;;;;;;5108531;28;20448;-71
2022/08/06 12:19:15;;;;;;;1.80;1.70;;;26.10;1.00;;;;;;5108090;28;20450;-71
2022/08/06 12:21:43;;;;;;;1.87;1.50;;;25.60;1.00;;;;;;5093585;28;20511;-71
2022/08/06 12:24:14;;;;;;;2.47;2.27;;;25.50;1.00;;;;;;5108576;28;20480;-71
2022/08/06 12:26:41;;;;;;;1.30;1.20;;;25.30;1.00;;;;;;5109909;28;20539;-71
2022/08/06 12:29:08;;;;;;;1.60;1.50;;;25.50;1.00;;;;;;5108331;28;20476;-69
2022/08/06 12:31:38;;;;;;;1.67;1.57;;;25.50;1.00;;;;;;5105960;28;20919;-71
2022/08/06 12:34:05;;;;;;;1.60;1.50;;;25.50;1.00;;;;;;5100912;28;20464;-71
2022/08/06 12:36:36;;;;;;;2.17;1.63;;;25.70;1.00;;;;;;5099444;28;20461;-71
2022/08/06 12:39:08;;;;;;;1.20;1.10;;;25.50;1.00;;;;;;5098811;28;20448;-71
2022/08/06 12:41:37;;;;;;;1.50;1.40;;;25.40;1.00;;;;;;5095378;28;20806;-71
2022/08/06 12:44:04;;;;;;;1.50;1.40;;;25.40;1.00;;;;;;5094376;28;20686;-70
2022/08/06 12:46:31;;;;;;;1.53;1.43;;;25.20;1.00;;;;;;5094495;28;20536;-71
2022/08/06 12:48:59;;;;;;;1.70;1.50;;;25.20;1.00;;;;;;5093533;28;20548;-70
2022/08/06 12:51:26;;;;;;;2.07;1.97;;;25.20;1.00;;;;;;5094314;28;20458;-71
2022/08/06 12:53:57;;;;;;;1.50;1.40;;;25.30;1.00;;;;;;5093567;28;20457;-71
2022/08/06 12:56:25;;;;;;;1.93;1.83;;;25.70;1.00;;;;;;5093610;28;20441;-73
2022/08/06 12:58:54;;;;;;;1.80;1.63;;;25.30;1.00;;;;;;5093282;28;20448;-71
2022/08/06 13:01:23;;;;;;;1.87;1.40;;;25.40;1.00;;;;;;5094296;28;20448;-70
2022/08/06 13:03:52;;;;;;;2.33;2.00;;;25.30;1.00;;;;;;5093532;28;20575;-71
2022/08/06 13:06:23;;;;;;;2.90;2.60;;;25.40;1.00;;;;;;5093867;28;20459;-71
2022/08/06 13:08:51;;;;;;;7.10;4.53;;;25.40;1.00;;;;;;5093250;28;20515;-70
2022/08/06 13:11:20;;;;;;;1.90;1.60;;;25.40;1.00;;;;;;5094032;28;20444;-70
2022/08/06 13:13:50;;;;;;;1.70;1.60;;;25.70;1.00;;;;;;5092954;28;20460;-71
2022/08/06 13:16:17;;;;;;;1.50;1.40;;;25.70;1.00;;;;;;5093489;28;20449;-70
2022/08/06 13:19:04;;;;;;;1.50;1.40;;;25.70;1.00;;;;;;5092795;28;20441;-70
2022/08/06 13:21:31;;;;;;;1.60;1.50;;;25.90;1.00;;;;;;5093647;28;20451;-71
2022/08/06 13:23:58;;;;;;;1.20;1.10;;;25.80;1.00;;;;;;5092884;28;20488;-70
2022/08/06 13:26:27;;;;;;;1.63;1.53;;;25.80;1.00;;;;;;5093428;28;20444;-71
2022/08/06 13:29:11;;;;;;;2.03;1.83;;;25.80;1.00;;;;;;5092050;28;21016;-70
2022/08/06 13:31:41;;;;;;;2.03;1.60;;;26.00;1.00;;;;;;5092774;28;20799;-70
2022/08/06 13:34:10;;;;;;;1.40;1.30;;;26.00;1.00;;;;;;5092989;28;20448;-70
2022/08/06 13:36:40;;;;;;;2.00;1.17;;;26.10;1.00;;;;;;5092765;28;20481;-70
2022/08/06 13:39:26;;;;;;;1.40;1.30;;;26.10;1.00;;;;;;5092426;28;20947;-70
2022/08/06 13:42:06;;;;;;;2.20;1.83;;;26.20;1.00;;;;;;5092684;28;20450;-71
2022/08/06 13:44:35;;;;;;;1.60;1.17;;;26.10;1.00;;;;;;5093182;28;20488;-70
2022/08/06 13:47:02;;;;;;;2.67;1.57;;;26.00;1.00;;;;;;5091667;28;21208;-70
2022/08/06 13:49:29;;;;;;;2.10;1.20;;;26.10;1.00;;;;;;5092768;28;20471;-70
2022/08/06 13:51:56;;;;;;;2.03;1.30;;;26.50;1.00;;;;;;5092407;28;20529;-71
2022/08/06 13:54:24;;;;;;;1.50;1.40;;;26.80;1.00;;;;;;5092531;28;20454;-71
2022/08/06 13:56:52;;;;;;;2.17;1.33;;;26.60;1.00;;;;;;5091635;28;20449;-70
2022/08/06 13:59:21;;;;;;;1.77;1.43;;;26.60;1.00;;;;;;5092293;28;20902;-70
2022/08/06 14:01:49;;;;;;;1.57;1.47;;;26.60;1.00;;;;;;5091785;28;20455;-70
2022/08/06 14:04:19;;;;;;;1.33;1.23;;;27.00;1.00;;;;;;5092583;28;20488;-72
2022/08/06 14:06:47;;;;;;;1.40;1.30;;;27.00;1.00;;;;;;5091304;28;20449;-70
2022/08/06 14:09:16;;;;;;;1.40;1.23;;;26.80;1.00;;;;;;5092784;28;20475;-70
2022/08/06 14:11:43;;;;;;;1.70;1.40;;;26.20;1.00;;;;;;5091548;28;20954;-70
2022/08/06 14:14:10;;;;;;;1.40;1.30;;;;;;;;;;5092037;28;20535;-70
2022/08/06 14:16:39;;;;;;;1.23;1.13;;;;;;;;;;5092319;28;20543;-72
2022/08/06 14:19:06;;;;;;;1.40;1.30;;;;;;;;;;5092604;28;20452;-72
2022/08/06 14:21:33;;;;;;;1.70;1.60;;;;;;;;;;5092140;28;20513;-71
2022/08/06 14:24:00;;;;;;;2.97;1.97;;;;;;;;;;5091719;28;20569;-71
2022/08/06 14:26:27;;;;;;;2.30;1.73;;;;;;;;;;5092303;28;20484;-72
2022/08/06 14:28:54;;;;;;;1.60;1.50;;;;;;;;;;5090941;28;20452;-70
2022/08/06 14:31:22;;;;;;;3.80;1.30;;;;;;;;;;5078677;28;20455;-71
2022/08/06 14:33:50;;;;;;;1.63;1.53;;;;;;;;;;5091921;28;20556;-70
2022/08/06 14:36:17;;;;;;;1.20;1.10;;;;;;;;;;5092040;28;20464;-71
2022/08/06 14:38:45;;;;;;;1.80;1.23;;;;;;;;;;5090740;28;20372;-70
2022/08/06 14:46:42;;;;;;;1.30;1.20;;;;;;;;;;5090755;28;20244;-70
2022/08/06 14:49:10;;;;;;;2.60;1.60;;;;;;;;;;5091596;28;20198;-70